sensor_id;sensor_type;location;lat;lon;timestamp;P1;durP1;ratioP1;P2;durP2;ratioP2
13432;SDS011;6789;47.678;9.158;2023-05-10T00:04:21;2.35;;;0.20;;
13432;SDS011;6789;47.678;9.158;2023-05-10T00:09:13;0.30;;;0.30;;
13432;SDS011;6789;47.678;9.158;2023-05-10T00:14:05;0.40;;;0.17;;
13432;SDS011;6789;47.678;9.158;2023-05-10T00:18:56;1.00;;;0.20;;
13432;SDS011;6789;47.678;9.158;2023-05-10T00:23:48;1.30;;;0.22;;
13432;SDS011;6789;47.678;9.158;2023-05-10T00:28:40;0.20;;;0.20;;
13432;SDS011;6789;47.678;9.158;2023-05-10T00:33:32;0.40;;;0.25;;
13432;SDS011;6789;47.678;9.158;2023-05-10T00:38:23;0.20;;;0.13;;
13432;SDS011;6789;47.678;9.158;2023-05-10T00:43:15;0.52;;;0.25;;
13432;SDS011;6789;47.678;9.158;2023-05-10T00:48:07;0.30;;;0.30;;
13432;SDS011;6789;47.678;9.158;2023-05-10T00:52:59;0.17;;;0.17;;
13432;SDS011;6789;47.678;9.158;2023-05-10T00:57:53;1.95;;;0.30;;
13432;SDS011;6789;47.678;9.158;2023-05-10T01:02:45;0.30;;;0.20;;
13432;SDS011;6789;47.678;9.158;2023-05-10T01:07:38;1.85;;;0.40;;
13432;SDS011;6789;47.678;9.158;2023-05-10T01:12:30;0.50;;;0.30;;
13432;SDS011;6789;47.678;9.158;2023-05-10T01:17:22;2.53;;;0.10;;
13432;SDS011;6789;47.678;9.158;2023-05-10T01:22:22;0.30;;;0.20;;
13432;SDS011;6789;47.678;9.158;2023-05-10T01:33:46;1.10;;;0.20;;
13432;SDS011;6789;47.678;9.158;2023-05-10T01:49:11;1.23;;;0.33;;
13432;SDS011;6789;47.678;9.158;2023-05-10T01:54:17;0.73;;;0.30;;
13432;SDS011;6789;47.678;9.158;2023-05-10T01:59:13;2.73;;;0.40;;
13432;SDS011;6789;47.678;9.158;2023-05-10T02:04:10;0.47;;;0.40;;
13432;SDS011;6789;47.678;9.158;2023-05-10T02:09:06;2.03;;;0.30;;
13432;SDS011;6789;47.678;9.158;2023-05-10T02:14:01;0.97;;;0.47;;
13432;SDS011;6789;47.678;9.158;2023-05-10T02:18:54;1.13;;;0.27;;
13432;SDS011;6789;47.678;9.158;2023-05-10T02:23:50;0.60;;;0.40;;
13432;SDS011;6789;47.678;9.158;2023-05-10T02:28:43;0.70;;;0.47;;
13432;SDS011;6789;47.678;9.158;2023-05-10T02:33:36;0.40;;;0.32;;
13432;SDS011;6789;47.678;9.158;2023-05-10T02:38:31;0.40;;;0.40;;
13432;SDS011;6789;47.678;9.158;2023-05-10T02:43:25;1.13;;;0.50;;
13432;SDS011;6789;47.678;9.158;2023-05-10T02:48:21;0.40;;;0.40;;
13432;SDS011;6789;47.678;9.158;2023-05-10T02:53:15;0.37;;;0.30;;
13432;SDS011;6789;47.678;9.158;2023-05-10T02:58:13;1.10;;;0.60;;
13432;SDS011;6789;47.678;9.158;2023-05-10T03:03:05;1.13;;;0.60;;
13432;SDS011;6789;47.678;9.158;2023-05-10T03:07:57;1.87;;;0.57;;
13432;SDS011;6789;47.678;9.158;2023-05-10T03:17:55;1.00;;;0.57;;
13432;SDS011;6789;47.678;9.158;2023-05-10T03:23:22;0.57;;;0.53;;
13432;SDS011;6789;47.678;9.158;2023-05-10T03:28:29;1.00;;;0.70;;
13432;SDS011;6789;47.678;9.158;2023-05-10T03:33:24;0.87;;;0.70;;
13432;SDS011;6789;47.678;9.158;2023-05-10T03:38:16;1.40;;;0.77;;
13432;SDS011;6789;47.678;9.158;2023-05-10T03:43:07;0.85;;;0.73;;
13432;SDS011;6789;47.678;9.158;2023-05-10T03:47:59;2.13;;;0.83;;
13432;SDS011;6789;47.678;9.158;2023-05-10T03:52:51;0.73;;;0.60;;
13432;SDS011;6789;47.678;9.158;2023-05-10T03:57:44;0.50;;;0.50;;
13432;SDS011;6789;47.678;9.158;2023-05-10T04:02:36;0.50;;;0.50;;
13432;SDS011;6789;47.678;9.158;2023-05-10T04:07:43;2.87;;;1.10;;
13432;SDS011;6789;47.678;9.158;2023-05-10T04:12:49;0.57;;;0.57;;
13432;SDS011;6789;47.678;9.158;2023-05-10T04:17:56;0.93;;;0.47;;
13432;SDS011;6789;47.678;9.158;2023-05-10T04:23:01;1.03;;;0.70;;
13432;SDS011;6789;47.678;9.158;2023-05-10T04:28:07;0.75;;;0.50;;
13432;SDS011;6789;47.678;9.158;2023-05-10T04:33:15;0.60;;;0.40;;
13432;SDS011;6789;47.678;9.158;2023-05-10T04:38:22;1.33;;;0.80;;
13432;SDS011;6789;47.678;9.158;2023-05-10T04:43:39;3.33;;;1.10;;
13432;SDS011;6789;47.678;9.158;2023-05-10T04:48:45;2.22;;;0.80;;
13432;SDS011;6789;47.678;9.158;2023-05-10T04:53:51;1.67;;;0.80;;
13432;SDS011;6789;47.678;9.158;2023-05-10T04:58:57;1.83;;;0.83;;
13432;SDS011;6789;47.678;9.158;2023-05-10T05:04:03;1.42;;;0.90;;
13432;SDS011;6789;47.678;9.158;2023-05-10T05:08:55;1.23;;;0.80;;
13432;SDS011;6789;47.678;9.158;2023-05-10T05:14:05;1.65;;;0.90;;
13432;SDS011;6789;47.678;9.158;2023-05-10T05:19:11;2.25;;;0.90;;
13432;SDS011;6789;47.678;9.158;2023-05-10T05:24:09;2.23;;;0.80;;
13432;SDS011;6789;47.678;9.158;2023-05-10T05:29:16;0.90;;;0.60;;
13432;SDS011;6789;47.678;9.158;2023-05-10T05:34:22;0.57;;;0.57;;
13432;SDS011;6789;47.678;9.158;2023-05-10T05:39:41;0.60;;;0.60;;
13432;SDS011;6789;47.678;9.158;2023-05-10T05:44:52;1.00;;;0.60;;
13432;SDS011;6789;47.678;9.158;2023-05-10T05:49:58;2.27;;;0.63;;
13432;SDS011;6789;47.678;9.158;2023-05-10T05:54:54;1.52;;;0.70;;
13432;SDS011;6789;47.678;9.158;2023-05-10T05:59:46;2.40;;;0.80;;
13432;SDS011;6789;47.678;9.158;2023-05-10T06:04:52;1.25;;;0.80;;
13432;SDS011;6789;47.678;9.158;2023-05-10T06:09:59;1.98;;;0.77;;
13432;SDS011;6789;47.678;9.158;2023-05-10T06:15:05;3.63;;;0.70;;
13432;SDS011;6789;47.678;9.158;2023-05-10T06:20:10;0.95;;;0.50;;
13432;SDS011;6789;47.678;9.158;2023-05-10T06:25:18;1.00;;;0.65;;
13432;SDS011;6789;47.678;9.158;2023-05-10T06:30:25;1.58;;;1.02;;
13432;SDS011;6789;47.678;9.158;2023-05-10T06:35:33;1.13;;;0.63;;
13432;SDS011;6789;47.678;9.158;2023-05-10T06:40:42;0.88;;;0.63;;
13432;SDS011;6789;47.678;9.158;2023-05-10T06:45:48;1.48;;;0.43;;
13432;SDS011;6789;47.678;9.158;2023-05-10T06:50:54;0.75;;;0.40;;
13432;SDS011;6789;47.678;9.158;2023-05-10T06:56:01;1.80;;;0.68;;
13432;SDS011;6789;47.678;9.158;2023-05-10T07:01:10;0.88;;;0.50;;
13432;SDS011;6789;47.678;9.158;2023-05-10T07:06:16;1.35;;;0.75;;
13432;SDS011;6789;47.678;9.158;2023-05-10T07:11:26;0.85;;;0.70;;
13432;SDS011;6789;47.678;9.158;2023-05-10T07:16:32;0.70;;;0.52;;
13432;SDS011;6789;47.678;9.158;2023-05-10T07:21:39;0.95;;;0.50;;
13432;SDS011;6789;47.678;9.158;2023-05-10T07:26:47;2.20;;;0.50;;
13432;SDS011;6789;47.678;9.158;2023-05-10T07:31:53;1.05;;;0.28;;
13432;SDS011;6789;47.678;9.158;2023-05-10T07:36:59;1.05;;;0.40;;
13432;SDS011;6789;47.678;9.158;2023-05-10T07:42:09;1.00;;;0.30;;
13432;SDS011;6789;47.678;9.158;2023-05-10T07:47:23;0.40;;;0.40;;
13432;SDS011;6789;47.678;9.158;2023-05-10T07:52:31;2.72;;;0.70;;
13432;SDS011;6789;47.678;9.158;2023-05-10T07:57:29;0.88;;;0.30;;
13432;SDS011;6789;47.678;9.158;2023-05-10T08:02:36;1.30;;;0.80;;
13432;SDS011;6789;47.678;9.158;2023-05-10T08:07:42;1.20;;;0.40;;
13432;SDS011;6789;47.678;9.158;2023-05-10T08:12:34;0.93;;;0.40;;
13432;SDS011;6789;47.678;9.158;2023-05-10T08:17:41;1.45;;;0.60;;
13432;SDS011;6789;47.678;9.158;2023-05-10T08:22:48;1.42;;;0.40;;
13432;SDS011;6789;47.678;9.158;2023-05-10T08:27:42;1.30;;;0.20;;
13432;SDS011;6789;47.678;9.158;2023-05-10T08:32:33;0.50;;;0.30;;
13432;SDS011;6789;47.678;9.158;2023-05-10T08:37:40;2.25;;;0.40;;
13432;SDS011;6789;47.678;9.158;2023-05-10T08:43:09;0.73;;;0.38;;
13432;SDS011;6789;47.678;9.158;2023-05-10T08:48:05;3.70;;;1.60;;
13432;SDS011;6789;47.678;9.158;2023-05-10T08:53:15;1.45;;;0.57;;
13432;SDS011;6789;47.678;9.158;2023-05-10T08:58:42;2.50;;;0.73;;
13432;SDS011;6789;47.678;9.158;2023-05-10T09:03:52;2.53;;;0.90;;
13432;SDS011;6789;47.678;9.158;2023-05-10T09:09:09;4.60;;;1.20;;
13432;SDS011;6789;47.678;9.158;2023-05-10T09:20:00;2.17;;;0.90;;
13432;SDS011;6789;47.678;9.158;2023-05-10T09:30:31;1.98;;;0.60;;
13432;SDS011;6789;47.678;9.158;2023-05-10T09:35:42;2.65;;;0.95;;
13432;SDS011;6789;47.678;9.158;2023-05-10T09:40:53;1.77;;;0.90;;
13432;SDS011;6789;47.678;9.158;2023-05-10T09:46:12;3.78;;;1.05;;
13432;SDS011;6789;47.678;9.158;2023-05-10T09:51:23;2.78;;;1.15;;
13432;SDS011;6789;47.678;9.158;2023-05-10T09:56:33;1.15;;;0.63;;
13432;SDS011;6789;47.678;9.158;2023-05-10T10:01:48;1.60;;;0.70;;
13432;SDS011;6789;47.678;9.158;2023-05-10T10:07:15;1.88;;;0.68;;
13432;SDS011;6789;47.678;9.158;2023-05-10T10:12:31;2.15;;;0.80;;
13432;SDS011;6789;47.678;9.158;2023-05-10T10:17:45;1.45;;;0.60;;
13432;SDS011;6789;47.678;9.158;2023-05-10T10:23:09;3.00;;;0.70;;
13432;SDS011;6789;47.678;9.158;2023-05-10T10:48:49;1.33;;;0.60;;
13432;SDS011;6789;47.678;9.158;2023-05-10T11:05:45;2.10;;;0.70;;
13432;SDS011;6789;47.678;9.158;2023-05-10T11:11:35;2.38;;;0.80;;
13432;SDS011;6789;47.678;9.158;2023-05-10T11:16:55;3.20;;;1.27;;
13432;SDS011;6789;47.678;9.158;2023-05-10T11:22:31;3.83;;;0.93;;
13432;SDS011;6789;47.678;9.158;2023-05-10T11:27:19;2.08;;;1.02;;
13432;SDS011;6789;47.678;9.158;2023-05-10T11:32:28;1.10;;;0.70;;
13432;SDS011;6789;47.678;9.158;2023-05-10T11:37:41;2.47;;;0.98;;
13432;SDS011;6789;47.678;9.158;2023-05-10T11:42:39;1.67;;;0.90;;
13432;SDS011;6789;47.678;9.158;2023-05-10T11:47:45;2.80;;;1.00;;
13432;SDS011;6789;47.678;9.158;2023-05-10T11:52:42;2.25;;;1.00;;
13432;SDS011;6789;47.678;9.158;2023-05-10T11:57:51;3.55;;;0.73;;
13432;SDS011;6789;47.678;9.158;2023-05-10T12:02:58;2.70;;;0.63;;
13432;SDS011;6789;47.678;9.158;2023-05-10T12:08:12;1.75;;;0.90;;
13432;SDS011;6789;47.678;9.158;2023-05-10T12:13:20;2.22;;;0.80;;
13432;SDS011;6789;47.678;9.158;2023-05-10T12:18:14;1.55;;;0.65;;
13432;SDS011;6789;47.678;9.158;2023-05-10T12:29:20;1.20;;;0.80;;
13432;SDS011;6789;47.678;9.158;2023-05-10T12:34:31;1.98;;;0.70;;
13432;SDS011;6789;47.678;9.158;2023-05-10T12:39:40;2.28;;;0.82;;
13432;SDS011;6789;47.678;9.158;2023-05-10T12:44:49;1.15;;;0.55;;
13432;SDS011;6789;47.678;9.158;2023-05-10T12:49:52;1.95;;;0.40;;
13432;SDS011;6789;47.678;9.158;2023-05-10T12:54:59;1.25;;;0.50;;
13432;SDS011;6789;47.678;9.158;2023-05-10T13:00:06;2.72;;;0.73;;
13432;SDS011;6789;47.678;9.158;2023-05-10T13:05:15;2.13;;;0.60;;
13432;SDS011;6789;47.678;9.158;2023-05-10T13:10:22;2.47;;;0.65;;
13432;SDS011;6789;47.678;9.158;2023-05-10T13:15:28;1.25;;;0.60;;
13432;SDS011;6789;47.678;9.158;2023-05-10T13:20:34;2.00;;;0.60;;
13432;SDS011;6789;47.678;9.158;2023-05-10T13:25:45;3.00;;;0.63;;
13432;SDS011;6789;47.678;9.158;2023-05-10T13:30:51;2.67;;;0.47;;
13432;SDS011;6789;47.678;9.158;2023-05-10T13:35:57;3.03;;;0.65;;
13432;SDS011;6789;47.678;9.158;2023-05-10T13:40:49;1.73;;;0.50;;
13432;SDS011;6789;47.678;9.158;2023-05-10T13:45:59;1.67;;;0.50;;
13432;SDS011;6789;47.678;9.158;2023-05-10T13:51:05;2.15;;;0.60;;
13432;SDS011;6789;47.678;9.158;2023-05-10T13:56:08;2.28;;;0.50;;
13432;SDS011;6789;47.678;9.158;2023-05-10T14:01:14;1.55;;;0.47;;
13432;SDS011;6789;47.678;9.158;2023-05-10T14:06:20;3.08;;;0.60;;
13432;SDS011;6789;47.678;9.158;2023-05-10T14:11:27;1.08;;;0.47;;
13432;SDS011;6789;47.678;9.158;2023-05-10T14:16:33;1.38;;;0.70;;
13432;SDS011;6789;47.678;9.158;2023-05-10T14:21:29;1.85;;;0.70;;
13432;SDS011;6789;47.678;9.158;2023-05-10T14:26:25;1.30;;;0.63;;
13432;SDS011;6789;47.678;9.158;2023-05-10T14:31:33;0.73;;;0.65;;
13432;SDS011;6789;47.678;9.158;2023-05-10T14:36:27;1.08;;;0.75;;
13432;SDS011;6789;47.678;9.158;2023-05-10T14:41:34;2.65;;;0.73;;
13432;SDS011;6789;47.678;9.158;2023-05-10T14:47:26;1.95;;;0.93;;
13432;SDS011;6789;47.678;9.158;2023-05-10T14:52:32;1.95;;;0.60;;
13432;SDS011;6789;47.678;9.158;2023-05-10T14:57:38;1.88;;;0.47;;
13432;SDS011;6789;47.678;9.158;2023-05-10T15:02:37;1.98;;;0.65;;
13432;SDS011;6789;47.678;9.158;2023-05-10T15:07:43;4.05;;;0.55;;
13432;SDS011;6789;47.678;9.158;2023-05-10T15:12:50;1.65;;;0.68;;
13432;SDS011;6789;47.678;9.158;2023-05-10T15:18:08;2.10;;;0.70;;
13432;SDS011;6789;47.678;9.158;2023-05-10T15:23:30;1.38;;;0.45;;
13432;SDS011;6789;47.678;9.158;2023-05-10T15:28:37;0.70;;;0.38;;
13432;SDS011;6789;47.678;9.158;2023-05-10T15:33:42;2.78;;;0.60;;
13432;SDS011;6789;47.678;9.158;2023-05-10T15:38:48;2.45;;;0.60;;
13432;SDS011;6789;47.678;9.158;2023-05-10T15:43:54;1.88;;;0.70;;
13432;SDS011;6789;47.678;9.158;2023-05-10T15:49:04;2.58;;;0.88;;
13432;SDS011;6789;47.678;9.158;2023-05-10T15:54:28;2.95;;;1.10;;
13432;SDS011;6789;47.678;9.158;2023-05-10T15:59:35;3.00;;;1.30;;
13432;SDS011;6789;47.678;9.158;2023-05-10T16:04:30;1.88;;;0.88;;
13432;SDS011;6789;47.678;9.158;2023-05-10T16:09:36;3.40;;;1.20;;
13432;SDS011;6789;47.678;9.158;2023-05-10T16:14:37;2.63;;;0.82;;
13432;SDS011;6789;47.678;9.158;2023-05-10T16:19:43;2.50;;;0.98;;
13432;SDS011;6789;47.678;9.158;2023-05-10T16:24:53;1.67;;;0.90;;
13432;SDS011;6789;47.678;9.158;2023-05-10T16:30:00;3.17;;;0.90;;
13432;SDS011;6789;47.678;9.158;2023-05-10T16:34:54;3.75;;;1.13;;
13432;SDS011;6789;47.678;9.158;2023-05-10T16:40:00;2.30;;;0.95;;
13432;SDS011;6789;47.678;9.158;2023-05-10T16:45:07;4.88;;;0.88;;
13432;SDS011;6789;47.678;9.158;2023-05-10T16:50:26;2.88;;;1.00;;
13432;SDS011;6789;47.678;9.158;2023-05-10T16:55:32;4.45;;;1.20;;
13432;SDS011;6789;47.678;9.158;2023-05-10T17:00:39;2.00;;;1.13;;
13432;SDS011;6789;47.678;9.158;2023-05-10T17:05:32;2.75;;;1.20;;
13432;SDS011;6789;47.678;9.158;2023-05-10T17:10:27;1.75;;;0.90;;
13432;SDS011;6789;47.678;9.158;2023-05-10T17:15:34;2.28;;;0.77;;
13432;SDS011;6789;47.678;9.158;2023-05-10T17:20:37;2.05;;;1.10;;
13432;SDS011;6789;47.678;9.158;2023-05-10T17:25:43;2.40;;;1.02;;
13432;SDS011;6789;47.678;9.158;2023-05-10T17:30:55;2.85;;;0.95;;
13432;SDS011;6789;47.678;9.158;2023-05-10T17:35:50;3.53;;;1.05;;
13432;SDS011;6789;47.678;9.158;2023-05-10T17:40:57;5.30;;;1.63;;
13432;SDS011;6789;47.678;9.158;2023-05-10T17:45:50;2.88;;;1.40;;
13432;SDS011;6789;47.678;9.158;2023-05-10T17:51:06;1.63;;;0.90;;
13432;SDS011;6789;47.678;9.158;2023-05-10T17:56:26;2.92;;;0.80;;
13432;SDS011;6789;47.678;9.158;2023-05-10T18:01:37;2.35;;;0.60;;
13432;SDS011;6789;47.678;9.158;2023-05-10T18:06:43;0.57;;;0.57;;
13432;SDS011;6789;47.678;9.158;2023-05-10T18:11:48;1.40;;;0.88;;
13432;SDS011;6789;47.678;9.158;2023-05-10T18:16:55;1.45;;;0.40;;
13432;SDS011;6789;47.678;9.158;2023-05-10T18:22:01;1.30;;;0.68;;
13432;SDS011;6789;47.678;9.158;2023-05-10T18:26:54;1.73;;;0.63;;
13432;SDS011;6789;47.678;9.158;2023-05-10T18:31:48;1.88;;;0.60;;
13432;SDS011;6789;47.678;9.158;2023-05-10T18:36:54;1.08;;;0.70;;
13432;SDS011;6789;47.678;9.158;2023-05-10T18:42:01;2.15;;;0.95;;
13432;SDS011;6789;47.678;9.158;2023-05-10T18:46:58;2.30;;;0.98;;
13432;SDS011;6789;47.678;9.158;2023-05-10T18:52:05;1.15;;;0.82;;
13432;SDS011;6789;47.678;9.158;2023-05-10T18:57:14;2.05;;;0.90;;
13432;SDS011;6789;47.678;9.158;2023-05-10T19:02:21;1.00;;;0.90;;
13432;SDS011;6789;47.678;9.158;2023-05-10T19:07:36;1.08;;;0.75;;
13432;SDS011;6789;47.678;9.158;2023-05-10T19:12:52;1.58;;;0.70;;
13432;SDS011;6789;47.678;9.158;2023-05-10T19:18:03;4.73;;;1.00;;
13432;SDS011;6789;47.678;9.158;2023-05-10T19:29:36;2.23;;;0.97;;
13432;SDS011;6789;47.678;9.158;2023-05-10T19:34:42;0.93;;;0.80;;
13432;SDS011;6789;47.678;9.158;2023-05-10T19:39:53;3.45;;;1.10;;
13432;SDS011;6789;47.678;9.158;2023-05-10T19:45:53;0.88;;;0.88;;
13432;SDS011;6789;47.678;9.158;2023-05-10T19:51:29;1.13;;;0.73;;
13432;SDS011;6789;47.678;9.158;2023-05-10T19:56:42;3.33;;;1.00;;
13432;SDS011;6789;47.678;9.158;2023-05-10T20:01:55;1.53;;;0.83;;
13432;SDS011;6789;47.678;9.158;2023-05-10T20:07:01;2.03;;;0.73;;
13432;SDS011;6789;47.678;9.158;2023-05-10T20:12:07;4.00;;;0.90;;
13432;SDS011;6789;47.678;9.158;2023-05-10T20:22:21;2.17;;;0.70;;
13432;SDS011;6789;47.678;9.158;2023-05-10T20:27:27;2.30;;;1.07;;
13432;SDS011;6789;47.678;9.158;2023-05-10T20:32:33;1.03;;;0.90;;
13432;SDS011;6789;47.678;9.158;2023-05-10T20:37:51;2.20;;;0.70;;
13432;SDS011;6789;47.678;9.158;2023-05-10T20:42:46;3.10;;;0.70;;
13432;SDS011;6789;47.678;9.158;2023-05-10T20:47:40;1.67;;;1.10;;
13432;SDS011;6789;47.678;9.158;2023-05-10T20:52:32;2.97;;;1.10;;
13432;SDS011;6789;47.678;9.158;2023-05-10T20:57:41;2.13;;;0.83;;
13432;SDS011;6789;47.678;9.158;2023-05-10T21:02:51;2.47;;;1.00;;
13432;SDS011;6789;47.678;9.158;2023-05-10T21:07:56;2.97;;;0.70;;
13432;SDS011;6789;47.678;9.158;2023-05-10T21:12:48;0.80;;;0.70;;
13432;SDS011;6789;47.678;9.158;2023-05-10T21:17:54;3.53;;;0.60;;
13432;SDS011;6789;47.678;9.158;2023-05-10T21:23:00;1.23;;;0.57;;
13432;SDS011;6789;47.678;9.158;2023-05-10T21:28:10;1.97;;;0.73;;
13432;SDS011;6789;47.678;9.158;2023-05-10T21:33:16;0.63;;;0.63;;
13432;SDS011;6789;47.678;9.158;2023-05-10T21:38:09;0.97;;;0.70;;
13432;SDS011;6789;47.678;9.158;2023-05-10T21:43:02;2.33;;;1.00;;
13432;SDS011;6789;47.678;9.158;2023-05-10T21:48:08;0.95;;;0.40;;
13432;SDS011;6789;47.678;9.158;2023-05-10T21:53:01;0.80;;;0.60;;
13432;SDS011;6789;47.678;9.158;2023-05-10T21:57:56;0.60;;;0.60;;
13432;SDS011;6789;47.678;9.158;2023-05-10T22:02:49;0.63;;;0.60;;
13432;SDS011;6789;47.678;9.158;2023-05-10T22:07:42;1.33;;;0.70;;
13432;SDS011;6789;47.678;9.158;2023-05-10T22:12:41;2.17;;;0.60;;
13432;SDS011;6789;47.678;9.158;2023-05-10T22:17:38;1.60;;;0.70;;
13432;SDS011;6789;47.678;9.158;2023-05-10T22:22:44;1.77;;;0.90;;
13432;SDS011;6789;47.678;9.158;2023-05-10T22:27:38;1.60;;;0.97;;
13432;SDS011;6789;47.678;9.158;2023-05-10T22:32:32;1.00;;;0.80;;
13432;SDS011;6789;47.678;9.158;2023-05-10T22:37:38;1.13;;;0.90;;
13432;SDS011;6789;47.678;9.158;2023-05-10T22:42:44;1.07;;;1.03;;
13432;SDS011;6789;47.678;9.158;2023-05-10T22:47:50;1.13;;;0.87;;
13432;SDS011;6789;47.678;9.158;2023-05-10T22:52:56;1.23;;;1.00;;
13432;SDS011;6789;47.678;9.158;2023-05-10T22:58:02;1.87;;;0.90;;
13432;SDS011;6789;47.678;9.158;2023-05-10T23:03:04;1.27;;;0.87;;
13432;SDS011;6789;47.678;9.158;2023-05-10T23:07:56;1.93;;;0.90;;
13432;SDS011;6789;47.678;9.158;2023-05-10T23:12:48;0.67;;;0.60;;
13432;SDS011;6789;47.678;9.158;2023-05-10T23:17:40;1.80;;;0.80;;
13432;SDS011;6789;47.678;9.158;2023-05-10T23:22:46;1.30;;;0.80;;
13432;SDS011;6789;47.678;9.158;2023-05-10T23:27:38;1.07;;;0.80;;
13432;SDS011;6789;47.678;9.158;2023-05-10T23:32:29;0.87;;;0.60;;
13432;SDS011;6789;47.678;9.158;2023-05-10T23:37:21;0.93;;;0.67;;
13432;SDS011;6789;47.678;9.158;2023-05-10T23:42:28;0.70;;;0.60;;
13432;SDS011;6789;47.678;9.158;2023-05-10T23:47:19;1.80;;;0.70;;
13432;SDS011;6789;47.678;9.158;2023-05-10T23:52:11;2.40;;;0.80;;
13432;SDS011;6789;47.678;9.158;2023-05-10T23:57:04;0.77;;;0.60;;
